Hainesport, New Jersey
Current Conditions -  °F | °C
As of 4:54 AM on Tuesday 21 Oct 2014 (Local Time) from KVAY Reporting Station
Few Clouds Few Clouds  
Wind Chill: 49°   Ceiling: Unl
Heat Index: 49°   Visibility: 10mi
Dew Point: 46°   Wind: 0mph
Humidity: 90%   Direction: NA
Pressure: 29.88"   Gusts: NA
Location:  39.98°N, 74.83°W
Report Text: KVAY 210854Z AUTO 00000KT 10SM FEW120 09/08 A2988 RMK AO2 SLP119 T00940078 58015
Loading
Personal Weather Stations






























Interactive Weather Map
Tropical Storm Tracking
New forecast layout! Learn more

10-Day Weather Forecast

Advertisements
Track Severe Weather on mobile